Time;durP1;ratioP1;P1;durP2;ratioP2;P2;SDS_P1;SDS_P2;PMS_P1;PMS_P2;Temp;Humidity;BMP_temperature;BMP_pressure;BME280_temperature;BME280_humidity;BME280_pressure;Samples;Min_cycle;Max_cycle;Signal;HPM_P1;HPM_P2
2022/01/07 00:02:24;;;;;;;9.60;4.05;;;3.90;97.20;;;;;;5036088;28;20022;-61
2022/01/07 00:04:49;;;;;;;13.02;4.80;;;4.00;97.20;;;;;;5042687;28;20032;-61
2022/01/07 00:07:15;;;;;;;19.23;4.80;;;4.00;96.90;;;;;;5035603;28;20029;-61
2022/01/07 00:09:41;;;;;;;12.63;5.40;;;4.00;97.00;;;;;;5037205;28;20512;-61
2022/01/07 00:12:07;;;;;;;13.82;4.28;;;4.00;97.10;;;;;;5034335;28;20053;-61
2022/01/07 00:14:32;;;;;;;12.43;4.15;;;4.00;96.90;;;;;;5036298;28;20112;-61
2022/01/07 00:16:58;;;;;;;12.88;4.57;;;4.00;96.90;;;;;;5042763;28;20099;-61
2022/01/07 00:19:24;;;;;;;11.50;5.03;;;4.00;96.80;;;;;;5031420;28;20022;-61
2022/01/07 00:21:49;;;;;;;11.90;4.10;;;4.00;96.70;;;;;;5038553;28;20061;-61
2022/01/07 00:24:15;;;;;;;14.27;4.43;;;4.00;96.60;;;;;;5041024;28;20029;-61
2022/01/07 00:26:41;;;;;;;13.07;4.72;;;4.00;96.50;;;;;;5032727;28;20710;-61
2022/01/07 00:29:06;;;;;;;14.13;4.30;;;4.10;96.50;;;;;;5035228;28;20399;-61
2022/01/07 00:31:32;;;;;;;10.68;3.95;;;4.10;96.50;;;;;;5041389;28;20818;-61
2022/01/07 00:33:58;;;;;;;25.17;6.25;;;4.00;96.50;;;;;;5037653;28;20032;-61
2022/01/07 00:36:23;;;;;;;12.65;4.75;;;4.00;96.80;;;;;;5040965;28;20021;-61
2022/01/07 00:38:49;;;;;;;12.52;4.50;;;3.90;97.10;;;;;;5034086;28;20024;-61
2022/01/07 00:41:14;;;;;;;14.65;4.43;;;3.80;97.50;;;;;;5039517;28;20044;-61
2022/01/07 00:43:40;;;;;;;13.07;5.43;;;3.70;98.00;;;;;;5039417;28;20068;-61
2022/01/07 00:46:05;;;;;;;10.02;4.68;;;3.60;98.50;;;;;;5037603;28;20112;-61
2022/01/07 00:48:31;;;;;;;13.15;4.68;;;3.50;98.90;;;;;;5037665;28;20025;-61
2022/01/07 00:50:56;;;;;;;9.00;4.75;;;3.50;99.30;;;;;;5035297;28;20447;-61
2022/01/07 00:53:22;;;;;;;11.65;4.85;;;3.50;99.50;;;;;;5039032;28;20036;-61
2022/01/07 00:55:47;;;;;;;11.82;5.13;;;3.40;99.80;;;;;;5036764;28;20052;-61
2022/01/07 00:58:13;;;;;;;17.05;5.43;;;3.40;99.90;;;;;;5035531;28;20113;-61
2022/01/07 01:00:39;;;;;;;12.55;5.30;;;3.30;99.90;;;;;;5034684;28;20018;-60
2022/01/07 01:03:04;;;;;;;15.20;6.45;;;3.30;99.90;;;;;;5038781;28;20070;-61
2022/01/07 01:05:30;;;;;;;16.88;5.80;;;3.20;99.90;;;;;;5039036;28;20496;-61
2022/01/07 01:07:56;;;;;;;18.67;5.57;;;3.10;99.90;;;;;;5031846;28;20078;-61
2022/01/07 01:10:24;;;;;;;13.65;5.47;;;3.00;99.90;;;;;;5037385;28;20230;-61
2022/01/07 01:12:50;;;;;;;15.30;6.07;;;3.00;99.90;;;;;;5038690;28;20052;-61
2022/01/07 01:15:20;;;;;;;12.80;5.97;;;2.90;99.90;;;;;;5030825;28;20504;-61
2022/01/07 01:17:46;;;;;;;13.35;5.15;;;2.90;99.90;;;;;;5038299;28;20840;-61
2022/01/07 01:20:11;;;;;;;13.40;5.72;;;2.90;99.90;;;;;;5041840;28;20033;-61
2022/01/07 01:22:38;;;;;;;14.43;7.10;;;2.90;99.90;;;;;;5038690;28;20587;-61
2022/01/07 01:25:04;;;;;;;13.77;5.22;;;2.90;99.90;;;;;;5035705;28;20021;-61
2022/01/07 01:27:30;;;;;;;13.82;5.25;;;2.90;99.90;;;;;;5033090;28;20075;-61
2022/01/07 01:29:56;;;;;;;11.43;5.50;;;2.80;99.90;;;;;;5030297;28;20025;-61
2022/01/07 01:32:21;;;;;;;16.40;5.55;;;2.80;99.90;;;;;;5031457;28;20028;-61
2022/01/07 01:34:47;;;;;;;21.10;6.78;;;2.90;99.90;;;;;;5042034;28;20071;-61
2022/01/07 01:37:13;;;;;;;13.82;5.63;;;2.90;99.90;;;;;;5034734;28;20025;-61
2022/01/07 01:39:38;;;;;;;14.55;5.68;;;2.90;99.90;;;;;;5038261;28;20169;-61
2022/01/07 01:42:04;;;;;;;19.70;5.80;;;2.90;99.90;;;;;;5038348;28;20061;-61
2022/01/07 01:44:30;;;;;;;16.38;6.00;;;2.90;99.90;;;;;;5037136;28;20443;-60
2022/01/07 01:46:56;;;;;;;20.13;5.70;;;2.90;99.90;;;;;;5038512;28;20025;-61
2022/01/07 01:49:22;;;;;;;19.33;6.47;;;3.00;99.90;;;;;;5038107;28;20021;-61
2022/01/07 01:51:49;;;;;;;15.70;5.82;;;2.90;99.90;;;;;;5035206;28;20036;-61
2022/01/07 01:54:15;;;;;;;11.65;5.38;;;3.00;99.90;;;;;;5038096;28;20025;-60
2022/01/07 01:56:41;;;;;;;16.85;4.95;;;3.00;99.90;;;;;;5041061;28;20029;-60
2022/01/07 01:59:07;;;;;;;9.75;4.38;;;3.10;99.90;;;;;;5032370;28;20021;-60
2022/01/07 02:01:34;;;;;;;15.65;4.82;;;3.10;99.90;;;;;;5036760;28;20493;-61
2022/01/07 02:04:00;;;;;;;9.85;4.55;;;3.10;99.90;;;;;;5047674;28;20129;-61
2022/01/07 02:06:26;;;;;;;16.05;4.53;;;3.20;99.90;;;;;;5033289;28;20499;-61
2022/01/07 02:08:52;;;;;;;11.75;4.40;;;3.20;99.90;;;;;;5037864;28;20079;-61
2022/01/07 02:11:18;;;;;;;13.80;5.10;;;3.20;99.90;;;;;;5030998;28;20132;-61
2022/01/07 02:13:45;;;;;;;11.02;4.25;;;3.20;99.90;;;;;;5032033;28;20120;-61
2022/01/07 02:16:11;;;;;;;8.88;4.32;;;3.30;99.90;;;;;;5040214;28;20025;-61
2022/01/07 02:18:36;;;;;;;16.75;4.35;;;3.30;99.90;;;;;;5034941;28;20025;-61
2022/01/07 02:21:02;;;;;;;12.70;4.43;;;3.30;99.90;;;;;;5029315;28;20026;-61
2022/01/07 02:23:28;;;;;;;11.48;3.97;;;3.30;99.90;;;;;;5034835;28;20040;-60
2022/01/07 02:25:56;;;;;;;12.43;4.28;;;3.30;99.90;;;;;;5040422;28;20583;-61
2022/01/07 02:28:23;;;;;;;11.43;4.68;;;3.30;99.90;;;;;;5029483;28;20044;-61
2022/01/07 02:30:49;;;;;;;11.10;4.20;;;3.30;99.90;;;;;;5037992;28;20029;-61
2022/01/07 02:33:14;;;;;;;11.25;3.97;;;3.30;99.90;;;;;;5041007;28;20025;-61
2022/01/07 02:35:45;;;;;;;14.00;4.70;;;3.30;99.90;;;;;;5037376;28;20033;-61
2022/01/07 02:38:13;;;;;;;10.70;3.85;;;3.30;99.90;;;;;;5030713;28;20100;-60
2022/01/07 02:40:38;;;;;;;9.93;4.22;;;3.30;99.90;;;;;;5035480;28;20029;-61
2022/01/07 02:43:04;;;;;;;15.30;5.60;;;3.30;99.90;;;;;;5037364;28;20025;-61
2022/01/07 02:45:29;;;;;;;8.75;3.92;;;3.30;99.90;;;;;;5037375;28;20517;-61
2022/01/07 02:47:57;;;;;;;10.27;4.32;;;3.30;99.90;;;;;;5033445;28;20481;-61
2022/01/07 02:50:31;;;;;;;13.05;3.90;;;3.30;99.90;;;;;;5028970;28;20127;-60
2022/01/07 02:52:57;;;;;;;12.98;4.07;;;3.30;99.90;;;;;;5033858;28;20506;-61
2022/01/07 02:55:24;;;;;;;10.38;3.50;;;3.30;99.90;;;;;;5028911;28;20025;-61
2022/01/07 02:57:50;;;;;;;16.27;5.70;;;3.30;99.90;;;;;;5028965;28;20148;-60
2022/01/07 03:00:17;;;;;;;9.15;3.45;;;3.40;99.90;;;;;;5034390;28;20026;-60
2022/01/07 03:02:45;;;;;;;11.20;3.55;;;3.40;99.90;;;;;;5033149;28;20076;-61
2022/01/07 03:05:11;;;;;;;8.43;3.78;;;3.30;99.90;;;;;;5033814;28;20147;-61
2022/01/07 03:07:38;;;;;;;8.55;3.45;;;3.30;99.90;;;;;;5037029;28;20123;-61
2022/01/07 03:10:05;;;;;;;10.18;3.40;;;3.40;99.90;;;;;;5029879;28;20025;-60
2022/01/07 03:12:31;;;;;;;12.82;3.20;;;3.30;99.90;;;;;;5028653;28;20049;-60
2022/01/07 03:14:57;;;;;;;9.45;2.80;;;3.30;99.90;;;;;;5031374;28;20026;-60
2022/01/07 03:17:22;;;;;;;9.07;3.00;;;3.30;99.90;;;;;;5042212;28;20108;-60
2022/01/07 03:19:48;;;;;;;7.57;3.22;;;3.30;99.90;;;;;;5046801;28;20025;-61
2022/01/07 03:22:13;;;;;;;10.13;3.67;;;3.30;99.90;;;;;;5044489;28;20021;-60
2022/01/07 03:24:40;;;;;;;11.45;3.13;;;3.20;99.90;;;;;;5034022;28;20604;-61
2022/01/07 03:27:06;;;;;;;10.45;3.30;;;3.20;99.90;;;;;;5040086;28;20057;-60
2022/01/07 03:29:32;;;;;;;11.93;3.22;;;3.10;99.90;;;;;;5033478;28;20035;-60
2022/01/07 03:31:57;;;;;;;11.65;3.65;;;3.10;99.90;;;;;;5031359;28;20022;-60
2022/01/07 03:34:23;;;;;;;9.70;3.95;;;3.00;99.90;;;;;;5032675;28;20036;-61
2022/01/07 03:36:48;;;;;;;10.07;3.40;;;2.90;99.90;;;;;;5050192;28;20021;-60
2022/01/07 03:39:14;;;;;;;10.50;3.75;;;2.90;99.90;;;;;;5035889;28;20049;-61
2022/01/07 03:41:39;;;;;;;12.63;4.15;;;2.90;99.90;;;;;;5029256;28;20021;-60
2022/01/07 03:44:05;;;;;;;10.55;4.30;;;2.80;99.90;;;;;;5033902;28;20112;-60
2022/01/07 03:46:30;;;;;;;11.38;3.80;;;2.80;99.90;;;;;;5033915;28;20139;-61
2022/01/07 03:48:56;;;;;;;12.45;4.15;;;2.80;99.90;;;;;;5027165;28;20036;-60
2022/01/07 03:51:21;;;;;;;14.75;3.33;;;2.80;99.90;;;;;;5028410;28;20505;-60
2022/01/07 03:53:47;;;;;;;9.57;4.55;;;2.80;99.90;;;;;;5037350;28;20493;-60
2022/01/07 03:56:17;;;;;;;8.98;3.95;;;2.80;99.90;;;;;;5034527;28;20026;-60
2022/01/07 03:58:44;;;;;;;7.47;4.13;;;2.80;99.90;;;;;;5031518;28;20017;-60
2022/01/07 04:01:09;;;;;;;7.00;3.92;;;2.80;99.90;;;;;;5033897;28;20100;-60
2022/01/07 04:03:35;;;;;;;11.38;3.95;;;2.80;99.90;;;;;;5036532;28;20206;-60
2022/01/07 04:06:00;;;;;;;8.90;4.05;;;2.80;99.90;;;;;;5031128;28;20036;-60
2022/01/07 04:08:26;;;;;;;9.38;4.15;;;2.80;99.90;;;;;;5029416;28;20029;-60
2022/01/07 04:10:52;;;;;;;13.65;4.50;;;2.80;99.90;;;;;;5034331;28;20032;-60
2022/01/07 04:13:17;;;;;;;10.13;3.80;;;2.80;99.90;;;;;;5040910;28;20035;-60
2022/01/07 04:15:43;;;;;;;14.48;4.82;;;2.80;99.90;;;;;;5040142;28;20386;-60
2022/01/07 04:18:08;;;;;;;8.65;4.13;;;2.80;99.90;;;;;;5041109;28;20030;-60
2022/01/07 04:20:35;;;;;;;11.35;4.18;;;2.80;99.90;;;;;;5034638;28;20385;-60
2022/01/07 04:23:03;;;;;;;7.63;4.07;;;2.80;99.90;;;;;;5037055;28;20493;-61
2022/01/07 04:25:29;;;;;;;10.15;4.18;;;2.70;99.90;;;;;;5035307;28;20104;-61
2022/01/07 04:27:59;;;;;;;9.40;4.25;;;2.80;99.90;;;;;;5036238;28;20151;-61
2022/01/07 04:30:25;;;;;;;;;;;2.80;99.90;;;;;;5037811;28;20060;-60
2022/01/07 04:32:52;;;;;;;10.20;4.38;;;2.80;99.90;;;;;;5038019;28;20007;-60
2022/01/07 04:35:18;;;;;;;9.68;4.47;;;2.70;99.90;;;;;;5038310;28;20021;-60
2022/01/07 04:37:45;;;;;;;9.88;4.40;;;2.80;99.90;;;;;;5039672;28;20052;-61
2022/01/07 04:40:12;;;;;;;5.38;3.85;;;2.80;99.90;;;;;;5036513;28;20017;-60
2022/01/07 04:42:37;;;;;;;11.18;5.10;;;2.80;99.90;;;;;;5032871;28;20104;-60
2022/01/07 04:45:05;;;;;;;11.07;4.40;;;2.80;99.90;;;;;;5036632;28;20187;-60
2022/01/07 04:47:31;;;;;;;7.05;4.50;;;2.80;99.90;;;;;;5055602;28;20033;-61
2022/01/07 04:49:57;;;;;;;7.85;3.90;;;2.80;99.90;;;;;;5038219;28;20395;-60
2022/01/07 04:52:23;;;;;;;7.60;4.10;;;2.90;99.90;;;;;;5032352;28;20555;-60
2022/01/07 04:54:48;;;;;;;12.13;4.88;;;2.90;99.90;;;;;;5031975;28;20033;-60
2022/01/07 04:57:14;;;;;;;9.15;4.45;;;2.90;99.90;;;;;;5037177;28;20091;-60
2022/01/07 04:59:39;;;;;;;6.18;3.88;;;2.90;99.90;;;;;;5040307;28;20021;-60
2022/01/07 05:02:06;;;;;;;8.68;4.53;;;3.00;99.90;;;;;;5033691;28;20045;-60
2022/01/07 05:04:31;;;;;;;6.97;4.35;;;2.90;99.90;;;;;;5032364;28;20036;-60
2022/01/07 05:06:57;;;;;;;7.95;4.45;;;3.00;99.90;;;;;;5030832;28;20021;-60
2022/01/07 05:09:22;;;;;;;8.48;4.78;;;3.00;99.90;;;;;;5036304;28;20489;-60
2022/01/07 05:11:53;;;;;;;9.35;4.65;;;3.00;99.90;;;;;;5038845;28;20048;-60
2022/01/07 05:14:18;;;;;;;;;;;3.00;99.90;;;;;;5036714;28;20029;-60
2022/01/07 05:16:44;;;;;;;10.02;4.32;;;3.00;99.90;;;;;;5037219;28;19909;-60
2022/01/07 05:19:10;;;;;;;10.07;5.35;;;3.10;99.90;;;;;;5040060;28;20013;-60
2022/01/07 05:21:37;;;;;;;10.35;5.60;;;3.10;99.90;;;;;;5034878;28;20033;-60
2022/01/07 05:24:03;;;;;;;8.52;5.15;;;3.10;99.90;;;;;;5038731;28;20032;-60
2022/01/07 05:26:29;;;;;;;7.70;4.68;;;3.20;99.90;;;;;;5033408;28;20067;-60
2022/01/07 05:28:54;;;;;;;8.45;4.82;;;3.20;99.90;;;;;;5044165;28;20503;-60
2022/01/07 05:31:24;;;;;;;11.35;5.78;;;3.30;99.90;;;;;;5037527;28;20104;-60
2022/01/07 05:33:54;;;;;;;7.35;5.20;;;3.30;99.90;;;;;;5032893;28;20029;-60
2022/01/07 05:36:20;;;;;;;9.68;5.20;;;3.40;99.90;;;;;;5033266;28;20080;-61
2022/01/07 05:38:46;;;;;;;7.35;5.47;;;3.40;99.90;;;;;;5032133;28;20045;-60
2022/01/07 05:41:12;;;;;;;8.77;5.70;;;3.40;99.90;;;;;;5045541;28;20112;-61
2022/01/07 05:43:38;;;;;;;10.63;6.03;;;3.40;99.90;;;;;;5032986;28;20143;-61
2022/01/07 05:46:04;;;;;;;11.05;5.85;;;3.50;99.90;;;;;;5032972;28;20032;-60
2022/01/07 05:48:29;;;;;;;8.55;5.90;;;3.50;99.90;;;;;;5033417;28;20017;-60
2022/01/07 05:51:08;;;;;;;10.98;5.90;;;3.50;99.90;;;;;;5039983;28;20013;-60
2022/01/07 05:53:34;;;;;;;12.10;6.30;;;3.60;99.90;;;;;;5034319;28;20031;-60
2022/01/07 05:55:59;;;;;;;10.05;6.43;;;3.60;99.90;;;;;;5031156;28;20017;-60
2022/01/07 05:58:25;;;;;;;11.68;6.53;;;3.60;99.90;;;;;;5035288;28;20025;-60
2022/01/07 06:00:50;;;;;;;11.23;7.20;;;3.60;99.90;;;;;;5033476;28;20500;-60
2022/01/07 06:03:16;;;;;;;12.07;6.78;;;3.70;99.90;;;;;;5034348;28;20037;-60
2022/01/07 06:05:41;;;;;;;11.27;6.85;;;3.70;99.90;;;;;;5029683;28;20033;-60
2022/01/07 06:08:09;;;;;;;14.23;7.95;;;3.70;99.90;;;;;;5033776;28;20017;-60
2022/01/07 06:10:34;;;;;;;14.77;7.82;;;3.80;99.90;;;;;;5032783;28;20025;-60
2022/01/07 06:13:00;;;;;;;12.18;7.65;;;3.80;99.90;;;;;;5033417;28;20057;-60
2022/01/07 06:15:26;;;;;;;15.93;8.50;;;3.80;99.90;;;;;;5032637;28;20056;-60
2022/01/07 06:17:52;;;;;;;10.88;7.88;;;3.90;99.90;;;;;;5042659;28;20473;-60
2022/01/07 06:20:19;;;;;;;11.10;7.40;;;3.90;99.90;;;;;;5032220;28;20404;-60
2022/01/07 06:22:45;;;;;;;13.35;7.68;;;4.00;99.90;;;;;;5034789;28;20024;-60
2022/01/07 06:25:11;;;;;;;11.05;7.53;;;4.00;99.90;;;;;;5036037;28;20025;-60
2022/01/07 06:27:38;;;;;;;11.20;7.55;;;4.00;99.90;;;;;;5038507;28;20481;-60
2022/01/07 06:30:05;;;;;;;15.98;8.55;;;4.00;99.90;;;;;;5050327;28;20057;-60
2022/01/07 06:32:30;;;;;;;12.10;8.50;;;4.10;99.90;;;;;;5052791;28;20028;-60
2022/01/07 06:34:56;;;;;;;12.35;7.88;;;4.10;99.90;;;;;;5052848;28;20390;-60
2022/01/07 06:37:22;;;;;;;14.80;8.23;;;4.10;99.90;;;;;;5053073;28;20044;-60
2022/01/07 06:39:47;;;;;;;14.20;8.40;;;4.10;99.90;;;;;;5052971;28;20075;-60
2022/01/07 06:42:13;;;;;;;14.85;9.10;;;4.20;99.90;;;;;;5048816;28;20022;-61
2022/01/07 06:44:38;;;;;;;12.48;8.55;;;4.20;99.90;;;;;;5051505;28;20445;-60
2022/01/07 06:47:05;;;;;;;14.57;8.07;;;4.20;99.90;;;;;;5051237;28;20032;-60
2022/01/07 06:49:31;;;;;;;14.63;8.40;;;4.20;99.90;;;;;;5051649;28;20100;-60
2022/01/07 06:51:57;;;;;;;15.10;8.50;;;4.30;99.90;;;;;;5051605;28;20028;-60
2022/01/07 06:54:23;;;;;;;18.02;9.05;;;4.30;99.90;;;;;;5050557;28;20033;-62
2022/01/07 06:56:49;;;;;;;18.65;8.40;;;4.30;99.90;;;;;;5051957;28;20027;-60
2022/01/07 06:59:15;;;;;;;13.20;7.78;;;4.40;99.90;;;;;;5052318;28;20029;-60
2022/01/07 07:01:41;;;;;;;11.60;8.20;;;4.40;99.90;;;;;;5042321;28;20040;-60
2022/01/07 07:04:07;;;;;;;12.50;8.82;;;4.40;99.90;;;;;;5052596;28;20029;-60
2022/01/07 07:06:33;;;;;;;13.15;8.60;;;4.40;99.90;;;;;;5052588;28;20021;-60
2022/01/07 07:08:58;;;;;;;15.90;9.45;;;4.40;99.90;;;;;;5052773;28;20103;-60
2022/01/07 07:11:24;;;;;;;19.40;10.68;;;4.40;99.90;;;;;;5052561;28;20374;-60
2022/01/07 07:13:49;;;;;;;12.95;8.52;;;4.50;99.90;;;;;;5045691;28;20030;-60
2022/01/07 07:16:15;;;;;;;16.70;8.90;;;4.50;99.90;;;;;;5039754;28;20038;-60
2022/01/07 07:18:41;;;;;;;15.63;8.27;;;4.50;99.90;;;;;;5052479;28;20093;-60
2022/01/07 07:21:07;;;;;;;14.02;8.65;;;4.50;99.90;;;;;;5052510;28;20166;-60
2022/01/07 07:23:32;;;;;;;12.60;8.02;;;4.50;99.90;;;;;;5052445;28;20392;-60
2022/01/07 07:25:58;;;;;;;16.40;8.80;;;4.50;99.90;;;;;;5052587;28;20051;-60
2022/01/07 07:28:23;;;;;;;11.52;8.23;;;4.50;99.90;;;;;;5052194;28;20392;-60
2022/01/07 07:30:50;;;;;;;15.68;9.05;;;4.60;99.90;;;;;;5042198;28;20029;-61
2022/01/07 07:38:32;;;;;;;13.80;8.50;;;4.60;99.90;;;;;;5032459;28;20226;-60
2022/01/07 07:40:57;;;;;;;16.55;8.98;;;4.60;99.90;;;;;;5031090;28;20489;-61
2022/01/07 07:43:23;;;;;;;13.93;8.38;;;4.60;99.90;;;;;;5041920;28;20436;-60
2022/01/07 07:45:48;;;;;;;14.00;9.00;;;4.70;99.90;;;;;;5049035;28;20049;-60
2022/01/07 07:48:14;;;;;;;19.48;8.48;;;4.70;99.90;;;;;;5052354;28;20469;-60
2022/01/07 07:50:39;;;;;;;13.52;9.23;;;4.70;99.90;;;;;;5054710;28;20044;-60
2022/01/07 07:53:05;;;;;;;14.98;8.70;;;4.70;99.90;;;;;;5054952;28;20853;-60
2022/01/07 07:55:31;;;;;;;15.15;9.48;;;4.70;99.90;;;;;;5051508;28;20029;-60
2022/01/07 07:57:56;;;;;;;18.77;9.27;;;4.70;99.90;;;;;;5039132;28;20056;-60
2022/01/07 08:00:22;;;;;;;21.00;9.70;;;4.80;99.90;;;;;;5035635;28;20069;-60
2022/01/07 08:02:48;;;;;;;17.65;8.93;;;4.80;99.90;;;;;;5035525;28;20084;-60
2022/01/07 08:05:13;;;;;;;14.60;8.75;;;4.80;99.90;;;;;;5035737;28;20053;-62
2022/01/07 08:07:39;;;;;;;15.88;8.63;;;4.80;99.90;;;;;;5035616;28;20029;-61
2022/01/07 08:10:05;;;;;;;16.98;9.13;;;4.80;99.90;;;;;;5045378;28;20474;-62
2022/01/07 08:12:52;;;;;;;15.10;8.68;;;4.80;99.90;;;;;;5055723;28;20492;-61
2022/01/07 08:18:00;;;;;;;11.27;8.60;;;4.80;99.90;;;;;;5036253;28;20036;-61
2022/01/07 08:20:26;;;;;;;12.63;8.77;;;4.80;99.90;;;;;;5035480;28;20025;-62
2022/01/07 08:22:52;;;;;;;13.60;8.40;;;4.90;99.90;;;;;;5035478;28;20098;-61
2022/01/07 08:25:17;;;;;;;16.17;9.73;;;4.90;99.90;;;;;;5043554;28;20411;-62
2022/01/07 08:27:43;;;;;;;17.08;9.27;;;4.90;99.90;;;;;;5055021;28;20085;-61
2022/01/07 08:30:22;;;;;;;17.25;8.70;;;4.90;99.90;;;;;;5055357;28;20159;-62
2022/01/07 08:35:38;;;;;;;14.30;8.63;;;4.90;99.90;;;;;;5037538;28;20045;-61
2022/01/07 08:38:04;;;;;;;12.55;8.85;;;4.90;99.90;;;;;;5047963;28;20028;-61
2022/01/07 08:40:30;;;;;;;14.43;8.70;;;5.00;99.90;;;;;;5053464;28;20086;-61
2022/01/07 08:42:56;;;;;;;12.15;9.07;;;5.00;99.90;;;;;;5054632;28;20451;-61
2022/01/07 08:45:28;;;;;;;15.85;8.40;;;5.00;99.90;;;;;;5054003;28;20025;-62
2022/01/07 08:47:54;;;;;;;14.45;9.68;;;5.00;99.90;;;;;;5054487;28;20099;-62
2022/01/07 08:50:19;;;;;;;12.32;8.98;;;5.10;99.90;;;;;;5054519;28;20524;-62
2022/01/07 08:52:45;;;;;;;15.25;9.13;;;5.10;99.90;;;;;;5052626;28;20048;-61
2022/01/07 08:55:11;;;;;;;17.42;9.15;;;5.10;99.90;;;;;;5054124;28;20025;-61
2022/01/07 08:57:37;;;;;;;11.90;8.40;;;5.20;99.90;;;;;;5053091;28;20039;-61
2022/01/07 09:00:04;;;;;;;13.75;8.98;;;5.20;99.90;;;;;;5052845;28;20469;-61
2022/01/07 09:02:45;;;;;;;15.35;7.90;;;5.20;99.90;;;;;;5054327;28;20443;-61
2022/01/07 09:05:10;;;;;;;13.85;8.63;;;5.30;99.90;;;;;;5053429;28;20025;-61
2022/01/07 09:07:36;;;;;;;12.00;7.95;;;5.30;99.90;;;;;;5054293;28;20090;-61
2022/01/07 09:10:01;;;;;;;13.50;8.38;;;5.40;99.90;;;;;;5053776;28;20029;-61
2022/01/07 09:12:27;;;;;;;13.15;7.63;;;5.40;99.90;;;;;;5053643;28;20037;-61
2022/01/07 09:14:52;;;;;;;12.43;8.40;;;5.40;99.90;;;;;;5053778;28;20072;-61
2022/01/07 09:17:18;;;;;;;11.35;7.60;;;5.40;99.90;;;;;;5053978;28;20100;-61
2022/01/07 09:19:48;;;;;;;13.15;7.70;;;5.40;99.90;;;;;;5053694;28;20028;-61
2022/01/07 09:22:14;;;;;;;15.30;7.75;;;5.40;99.90;;;;;;5052615;28;20040;-62
2022/01/07 09:24:55;;;;;;;12.73;7.95;;;5.30;99.90;;;;;;5053678;28;20021;-62
2022/01/07 09:27:21;;;;;;;11.88;6.72;;;5.30;99.90;;;;;;5053360;28;20029;-62
2022/01/07 09:29:46;;;;;;;15.23;8.10;;;5.30;99.90;;;;;;5053523;28;20396;-62
2022/01/07 09:32:12;;;;;;;10.73;7.43;;;5.30;99.90;;;;;;5052112;28;20044;-62
2022/01/07 09:34:41;;;;;;;15.55;8.18;;;5.30;99.90;;;;;;5046172;28;20413;-62
2022/01/07 09:37:06;;;;;;;13.55;8.25;;;5.30;99.90;;;;;;5046158;28;20113;-62
2022/01/07 09:39:33;;;;;;;11.20;7.20;;;5.40;99.90;;;;;;5053390;28;20479;-62
2022/01/07 09:42:05;;;;;;;12.13;6.65;;;5.40;99.90;;;;;;5053452;28;20025;-62
2022/01/07 09:44:35;;;;;;;10.98;7.30;;;5.50;99.90;;;;;;5052636;28;20033;-61
2022/01/07 09:47:01;;;;;;;11.95;6.95;;;5.60;99.90;;;;;;5052937;28;20044;-62
2022/01/07 09:49:27;;;;;;;12.18;6.82;;;5.60;99.90;;;;;;5053282;28;20116;-62
2022/01/07 09:51:52;;;;;;;10.35;7.18;;;5.60;99.90;;;;;;5053592;28;20099;-62
2022/01/07 09:54:18;;;;;;;11.40;7.53;;;5.70;99.90;;;;;;5051751;28;20473;-62
2022/01/07 09:56:43;;;;;;;14.45;7.32;;;5.80;99.90;;;;;;5052978;28;20017;-62
2022/01/07 09:59:15;;;;;;;13.27;7.18;;;5.80;99.90;;;;;;5053213;28;20433;-62
2022/01/07 10:01:58;;;;;;;14.23;7.07;;;6.00;99.90;;;;;;5053042;28;20025;-62
2022/01/07 10:04:33;;;;;;;13.25;7.00;;;6.10;99.90;;;;;;5052510;28;20028;-63
2022/01/07 10:07:17;;;;;;;12.48;6.97;;;6.10;99.90;;;;;;5052272;28;20024;-62
2022/01/07 10:10:20;;;;;;;12.80;7.22;;;6.10;99.90;;;;;;5052368;28;20028;-62
2022/01/07 10:13:04;;;;;;;13.40;6.93;;;6.20;99.90;;;;;;5052244;28;20041;-61
2022/01/07 10:15:32;;;;;;;9.70;6.47;;;6.30;99.90;;;;;;5052732;28;20033;-62
2022/01/07 10:18:02;;;;;;;11.75;6.22;;;6.60;99.90;;;;;;5052862;28;20040;-62
2022/01/07 10:20:31;;;;;;;12.38;6.03;;;6.60;99.90;;;;;;5033152;28;20084;-62
2022/01/07 10:23:03;;;;;;;11.85;6.38;;;6.90;99.90;;;;;;5031607;28;20029;-62
2022/01/07 10:25:38;;;;;;;10.45;4.82;;;7.30;99.90;;;;;;5032504;28;20444;-62
2022/01/07 10:28:13;;;;;;;12.30;5.43;;;7.40;99.90;;;;;;5032634;28;20100;-62
2022/01/07 10:30:47;;;;;;;12.82;5.00;;;7.80;99.90;;;;;;5032736;28;20047;-62
2022/01/07 10:33:15;;;;;;;8.52;4.93;;;7.90;99.90;;;;;;5032779;28;20083;-62
2022/01/07 10:35:41;;;;;;;10.50;4.63;;;7.80;99.90;;;;;;5032284;28;20025;-63
2022/01/07 10:38:06;;;;;;;8.50;3.78;;;7.70;99.90;;;;;;5032523;28;20025;-63
2022/01/07 10:40:37;;;;;;;7.40;3.75;;;8.00;99.90;;;;;;5032511;28;20541;-62
2022/01/07 10:43:12;;;;;;;9.13;4.07;;;8.10;99.40;;;;;;5031183;28;20037;-62
2022/01/07 10:45:39;;;;;;;11.82;3.50;;;7.90;98.80;;;;;;5032370;28;20029;-62
2022/01/07 10:48:08;;;;;;;10.38;4.07;;;7.80;99.10;;;;;;5042650;28;20033;-63
2022/01/07 10:50:37;;;;;;;8.82;4.20;;;7.70;99.30;;;;;;5048247;28;20465;-62
2022/01/07 10:53:19;;;;;;;8.73;3.30;;;8.00;99.70;;;;;;5051528;28;20052;-60
2022/01/07 10:56:00;;;;;;;8.60;3.60;;;8.40;99.00;;;;;;5050780;28;20025;-60
2022/01/07 10:58:26;;;;;;;10.07;3.63;;;8.60;98.20;;;;;;5048473;28;20024;-60
2022/01/07 11:00:52;;;;;;;10.63;3.65;;;8.60;97.50;;;;;;5048112;28;20013;-60
2022/01/07 11:03:18;;;;;;;11.65;4.00;;;8.40;97.10;;;;;;5046857;28;20027;-60
2022/01/07 11:05:43;;;;;;;7.78;3.55;;;8.20;97.60;;;;;;5050073;28;20853;-60
2022/01/07 11:08:09;;;;;;;10.00;3.75;;;8.10;97.60;;;;;;5050649;28;20032;-60
2022/01/07 11:10:38;;;;;;;7.90;3.38;;;8.10;97.70;;;;;;5048475;28;20542;-60
2022/01/07 11:13:04;;;;;;;9.13;4.22;;;8.30;97.80;;;;;;5038077;28;20148;-60
2022/01/07 11:15:29;;;;;;;10.07;4.35;;;8.50;97.40;;;;;;5032556;28;20032;-60
2022/01/07 11:17:55;;;;;;;11.65;3.17;;;8.50;96.50;;;;;;5058374;28;20021;-60
2022/01/07 11:20:24;;;;;;;9.98;3.60;;;8.40;96.60;;;;;;5057609;28;20021;-60
2022/01/07 11:22:50;;;;;;;7.43;3.35;;;8.40;96.90;;;;;;5057268;28;20435;-60
2022/01/07 11:25:19;;;;;;;7.15;3.13;;;8.20;96.50;;;;;;5058663;28;20029;-62
2022/01/07 11:27:51;;;;;;;14.05;3.53;;;8.10;96.70;;;;;;5058279;28;20036;-62
2022/01/07 11:30:24;;;;;;;6.35;3.15;;;7.90;97.10;;;;;;5058706;28;20036;-63
2022/01/07 11:32:51;;;;;;;7.25;3.78;;;7.80;97.40;;;;;;5050332;28;20029;-62
2022/01/07 11:35:17;;;;;;;11.57;4.35;;;7.80;97.50;;;;;;5038461;28;20021;-62
2022/01/07 11:37:50;;;;;;;9.50;3.55;;;8.00;97.70;;;;;;5038395;28;20366;-62
2022/01/07 11:40:31;;;;;;;6.88;2.78;;;8.40;97.20;;;;;;5038568;28;20021;-62
2022/01/07 11:43:01;;;;;;;7.82;3.10;;;8.40;96.20;;;;;;5038214;28;20018;-62
2022/01/07 11:45:29;;;;;;;6.43;2.60;;;8.30;96.30;;;;;;5038495;28;20036;-62
2022/01/07 11:48:23;;;;;;;9.68;3.83;;;8.10;96.30;;;;;;5038429;28;20500;-63
2022/01/07 11:50:55;;;;;;;8.80;3.20;;;8.00;96.40;;;;;;5038293;28;20030;-63
2022/01/07 11:53:21;;;;;;;8.40;2.60;;;7.90;96.50;;;;;;5038426;28;20389;-62
2022/01/07 11:55:47;;;;;;;12.48;2.88;;;7.90;96.40;;;;;;5053567;28;20021;-63
2022/01/07 11:58:14;;;;;;;10.07;2.58;;;8.10;96.50;;;;;;5038447;28;20082;-63
2022/01/07 12:00:59;;;;;;;10.02;2.97;;;8.30;96.10;;;;;;5054680;28;20480;-60
2022/01/07 12:03:42;;;;;;;9.32;2.80;;;8.40;95.70;;;;;;5053324;28;20561;-60
2022/01/07 12:06:26;;;;;;;6.88;2.63;;;8.40;95.70;;;;;;5055249;28;20025;-60
2022/01/07 12:09:10;;;;;;;7.18;2.65;;;8.70;95.60;;;;;;5057167;28;20054;-60
2022/01/07 12:11:53;;;;;;;9.43;2.72;;;8.80;95.00;;;;;;5070135;28;20037;-60
2022/01/07 12:14:39;;;;;;;9.27;2.80;;;8.80;94.70;;;;;;5052384;28;20094;-60
2022/01/07 12:17:11;;;;;;;8.07;2.83;;;8.70;94.30;;;;;;5050362;28;20048;-60
2022/01/07 12:19:44;;;;;;;7.82;3.20;;;8.60;94.30;;;;;;5052557;28;20022;-60
2022/01/07 12:22:16;;;;;;;6.18;2.78;;;8.50;94.60;;;;;;5052104;28;20033;-60
2022/01/07 12:24:42;;;;;;;9.13;2.90;;;8.60;94.60;;;;;;5054524;28;20390;-60
2022/01/07 12:27:17;;;;;;;5.93;3.20;;;8.70;94.60;;;;;;5054219;28;20029;-60
2022/01/07 12:29:44;;;;;;;7.80;2.90;;;8.90;94.50;;;;;;5053356;28;20098;-61
2022/01/07 12:32:11;;;;;;;6.47;2.90;;;9.10;94.00;;;;;;5051303;28;20385;-60
2022/01/07 12:34:40;;;;;;;8.43;2.47;;;9.00;93.60;;;;;;5051072;28;20017;-60
2022/01/07 12:37:20;;;;;;;5.60;2.72;;;8.80;93.90;;;;;;5049899;28;20033;-61
2022/01/07 12:39:54;;;;;;;8.48;3.03;;;8.60;94.20;;;;;;5048606;28;20489;-61
2022/01/07 12:42:19;;;;;;;7.13;3.10;;;8.40;94.40;;;;;;5050649;28;20432;-61
2022/01/07 12:44:57;;;;;;;6.13;3.30;;;8.30;94.70;;;;;;5050875;28;20477;-61
2022/01/07 12:47:28;;;;;;;5.70;2.53;;;8.30;95.00;;;;;;5050642;28;20037;-60
2022/01/07 12:49:59;;;;;;;5.20;2.38;;;8.20;94.90;;;;;;5053648;28;20029;-61
2022/01/07 12:52:24;;;;;;;6.07;2.38;;;8.20;95.00;;;;;;5048178;28;20567;-60
2022/01/07 12:55:06;;;;;;;7.70;2.88;;;8.30;95.30;;;;;;5053613;28;20112;-61
2022/01/07 12:57:44;;;;;;;9.32;3.50;;;8.20;95.30;;;;;;5054149;28;20529;-60
2022/01/07 13:00:27;;;;;;;8.77;3.47;;;8.10;95.40;;;;;;5054386;28;20025;-61
2022/01/07 13:02:55;;;;;;;9.73;2.72;;;8.20;95.40;;;;;;5054109;28;20025;-61
2022/01/07 13:05:28;;;;;;;9.88;3.60;;;8.00;95.50;;;;;;5052234;28;20476;-61